sensor_id;sensor_type;location;lat;lon;timestamp;temperature;humidity
76040;SHT30;64736;50.462;4.850;2023-08-21T00:01:45;22.02;74.26
76040;SHT30;64736;50.462;4.850;2023-08-21T00:04:11;21.57;75.84
76040;SHT30;64736;50.462;4.850;2023-08-21T00:06:37;21.80;74.91
76040;SHT30;64736;50.462;4.850;2023-08-21T00:09:03;21.86;74.46
76040;SHT30;64736;50.462;4.850;2023-08-21T00:11:28;21.59;75.50
76040;SHT30;64736;50.462;4.850;2023-08-21T00:13:54;21.62;75.60
76040;SHT30;64736;50.462;4.850;2023-08-21T00:16:20;21.54;75.87
76040;SHT30;64736;50.462;4.850;2023-08-21T00:18:46;21.66;75.15
76040;SHT30;64736;50.462;4.850;2023-08-21T00:21:12;21.53;75.67
76040;SHT30;64736;50.462;4.850;2023-08-21T00:23:38;21.33;76.22
76040;SHT30;64736;50.462;4.850;2023-08-21T00:26:04;21.29;76.34
76040;SHT30;64736;50.462;4.850;2023-08-21T00:28:30;21.33;76.37
76040;SHT30;64736;50.462;4.850;2023-08-21T00:31:04;21.43;76.16
76040;SHT30;64736;50.462;4.850;2023-08-21T00:33:31;21.18;76.96
76040;SHT30;64736;50.462;4.850;2023-08-21T00:35:57;20.90;77.74
76040;SHT30;64736;50.462;4.850;2023-08-21T00:38:23;21.28;76.85
76040;SHT30;64736;50.462;4.850;2023-08-21T00:40:49;21.43;76.03
76040;SHT30;64736;50.462;4.850;2023-08-21T00:43:15;21.57;75.12
76040;SHT30;64736;50.462;4.850;2023-08-21T00:45:42;21.14;76.49
76040;SHT30;64736;50.462;4.850;2023-08-21T00:48:09;21.06;76.92
76040;SHT30;64736;50.462;4.850;2023-08-21T00:50:36;20.98;77.31
76040;SHT30;64736;50.462;4.850;2023-08-21T00:53:02;21.15;76.73
76040;SHT30;64736;50.462;4.850;2023-08-21T00:55:29;21.09;76.82
76040;SHT30;64736;50.462;4.850;2023-08-21T00:57:55;20.92;77.39
76040;SHT30;64736;50.462;4.850;2023-08-21T01:00:22;21.18;76.32
76040;SHT30;64736;50.462;4.850;2023-08-21T01:02:48;21.18;76.61
76040;SHT30;64736;50.462;4.850;2023-08-21T01:05:14;21.12;76.75
76040;SHT30;64736;50.462;4.850;2023-08-21T01:07:56;21.14;76.79
76040;SHT30;64736;50.462;4.850;2023-08-21T01:10:36;20.92;77.00
76040;SHT30;64736;50.462;4.850;2023-08-21T01:16:16;20.85;77.64
76040;SHT30;64736;50.462;4.850;2023-08-21T01:18:43;20.83;77.46
76040;SHT30;64736;50.462;4.850;2023-08-21T01:21:10;20.94;76.89
76040;SHT30;64736;50.462;4.850;2023-08-21T01:23:37;20.83;76.89
76040;SHT30;64736;50.462;4.850;2023-08-21T01:26:04;20.78;77.50
76040;SHT30;64736;50.462;4.850;2023-08-21T01:28:31;20.78;77.90
76040;SHT30;64736;50.462;4.850;2023-08-21T01:33:30;20.64;77.85
76040;SHT30;64736;50.462;4.850;2023-08-21T01:36:00;20.67;78.13
76040;SHT30;64736;50.462;4.850;2023-08-21T01:38:33;20.58;78.28
76040;SHT30;64736;50.462;4.850;2023-08-21T01:41:01;20.68;78.06
76040;SHT30;64736;50.462;4.850;2023-08-21T01:43:27;20.60;78.14
76040;SHT30;64736;50.462;4.850;2023-08-21T01:45:54;20.47;78.72
76040;SHT30;64736;50.462;4.850;2023-08-21T01:48:20;20.60;78.38
76040;SHT30;64736;50.462;4.850;2023-08-21T01:50:45;20.43;79.03
76040;SHT30;64736;50.462;4.850;2023-08-21T01:53:11;20.53;78.71
76040;SHT30;64736;50.462;4.850;2023-08-21T01:55:37;20.74;78.03
76040;SHT30;64736;50.462;4.850;2023-08-21T01:58:03;20.68;77.93
76040;SHT30;64736;50.462;4.850;2023-08-21T02:00:28;20.68;77.85
76040;SHT30;64736;50.462;4.850;2023-08-21T02:02:54;20.57;78.16
76040;SHT30;64736;50.462;4.850;2023-08-21T02:05:20;20.57;77.92
76040;SHT30;64736;50.462;4.850;2023-08-21T02:07:46;20.41;78.63
76040;SHT30;64736;50.462;4.850;2023-08-21T02:10:12;20.57;78.30
76040;SHT30;64736;50.462;4.850;2023-08-21T02:12:37;20.64;77.88
76040;SHT30;64736;50.462;4.850;2023-08-21T02:15:03;20.49;78.37
76040;SHT30;64736;50.462;4.850;2023-08-21T02:17:29;20.60;78.17
76040;SHT30;64736;50.462;4.850;2023-08-21T02:19:55;20.49;78.58
76040;SHT30;64736;50.462;4.850;2023-08-21T02:22:21;20.44;78.82
76040;SHT30;64736;50.462;4.850;2023-08-21T02:24:47;20.44;79.04
76040;SHT30;64736;50.462;4.850;2023-08-21T02:27:12;20.43;79.08
76040;SHT30;64736;50.462;4.850;2023-08-21T02:29:38;20.36;79.33
76040;SHT30;64736;50.462;4.850;2023-08-21T02:32:04;20.32;79.67
76040;SHT30;64736;50.462;4.850;2023-08-21T02:34:30;20.28;79.87
76040;SHT30;64736;50.462;4.850;2023-08-21T02:36:56;20.19;80.37
76040;SHT30;64736;50.462;4.850;2023-08-21T02:39:21;20.06;81.06
76040;SHT30;64736;50.462;4.850;2023-08-21T02:41:47;20.01;81.40
76040;SHT30;64736;50.462;4.850;2023-08-21T02:44:13;19.91;81.73
76040;SHT30;64736;50.462;4.850;2023-08-21T02:46:39;19.91;81.44
76040;SHT30;64736;50.462;4.850;2023-08-21T02:49:05;19.86;81.84
76040;SHT30;64736;50.462;4.850;2023-08-21T02:51:30;19.86;81.86
76040;SHT30;64736;50.462;4.850;2023-08-21T02:53:56;19.82;82.14
76040;SHT30;64736;50.462;4.850;2023-08-21T02:56:22;19.79;82.19
76040;SHT30;64736;50.462;4.850;2023-08-21T02:58:47;19.74;82.37
76040;SHT30;64736;50.462;4.850;2023-08-21T03:01:13;19.78;82.03
76040;SHT30;64736;50.462;4.850;2023-08-21T03:03:39;19.72;82.11
76040;SHT30;64736;50.462;4.850;2023-08-21T03:06:05;19.72;82.13
76040;SHT30;64736;50.462;4.850;2023-08-21T03:08:31;19.68;82.30
76040;SHT30;64736;50.462;4.850;2023-08-21T03:10:56;19.64;82.41
76040;SHT30;64736;50.462;4.850;2023-08-21T03:13:22;19.54;82.31
76040;SHT30;64736;50.462;4.850;2023-08-21T03:15:48;19.50;82.85
76040;SHT30;64736;50.462;4.850;2023-08-21T03:18:14;19.54;82.43
76040;SHT30;64736;50.462;4.850;2023-08-21T03:20:45;19.53;82.54
76040;SHT30;64736;50.462;4.850;2023-08-21T03:23:15;19.44;82.65
76040;SHT30;64736;50.462;4.850;2023-08-21T03:25:40;19.53;82.42
76040;SHT30;64736;50.462;4.850;2023-08-21T03:28:06;19.44;82.34
76040;SHT30;64736;50.462;4.850;2023-08-21T03:30:32;19.44;82.00
76040;SHT30;64736;50.462;4.850;2023-08-21T03:32:57;19.35;82.40
76040;SHT30;64736;50.462;4.850;2023-08-21T03:35:23;19.40;82.27
76040;SHT30;64736;50.462;4.850;2023-08-21T03:37:49;19.37;82.56
76040;SHT30;64736;50.462;4.850;2023-08-21T03:40:14;19.31;82.71
76040;SHT30;64736;50.462;4.850;2023-08-21T03:42:40;19.30;82.73
76040;SHT30;64736;50.462;4.850;2023-08-21T03:45:07;19.24;83.00
76040;SHT30;64736;50.462;4.850;2023-08-21T03:47:32;19.20;83.13
76040;SHT30;64736;50.462;4.850;2023-08-21T03:49:58;19.09;83.73
76040;SHT30;64736;50.462;4.850;2023-08-21T03:52:24;19.07;83.70
76040;SHT30;64736;50.462;4.850;2023-08-21T03:54:50;19.00;84.08
76040;SHT30;64736;50.462;4.850;2023-08-21T03:57:16;19.06;83.75
76040;SHT30;64736;50.462;4.850;2023-08-21T03:59:41;19.05;83.63
76040;SHT30;64736;50.462;4.850;2023-08-21T04:02:07;19.02;84.03
76040;SHT30;64736;50.462;4.850;2023-08-21T04:04:33;18.93;84.27
76040;SHT30;64736;50.462;4.850;2023-08-21T04:06:59;18.95;84.14
76040;SHT30;64736;50.462;4.850;2023-08-21T04:09:24;18.93;84.22
76040;SHT30;64736;50.462;4.850;2023-08-21T04:11:50;18.92;84.13
76040;SHT30;64736;50.462;4.850;2023-08-21T04:14:16;18.91;83.90
76040;SHT30;64736;50.462;4.850;2023-08-21T04:16:42;18.86;84.02
76040;SHT30;64736;50.462;4.850;2023-08-21T04:19:08;18.72;84.58
76040;SHT30;64736;50.462;4.850;2023-08-21T04:21:33;18.81;84.27
76040;SHT30;64736;50.462;4.850;2023-08-21T04:23:59;18.82;84.24
76040;SHT30;64736;50.462;4.850;2023-08-21T04:26:25;18.65;84.93
76040;SHT30;64736;50.462;4.850;2023-08-21T04:28:51;18.66;84.67
76040;SHT30;64736;50.462;4.850;2023-08-21T04:31:16;18.82;84.09
76040;SHT30;64736;50.462;4.850;2023-08-21T04:33:42;18.79;84.22
76040;SHT30;64736;50.462;4.850;2023-08-21T04:36:15;18.72;84.17
76040;SHT30;64736;50.462;4.850;2023-08-21T04:38:41;18.72;84.28
76040;SHT30;64736;50.462;4.850;2023-08-21T04:41:08;18.65;84.51
76040;SHT30;64736;50.462;4.850;2023-08-21T04:43:34;18.57;84.68
76040;SHT30;64736;50.462;4.850;2023-08-21T04:46:00;18.52;84.97
76040;SHT30;64736;50.462;4.850;2023-08-21T04:48:25;18.59;84.59
76040;SHT30;64736;50.462;4.850;2023-08-21T04:50:51;18.40;85.13
76040;SHT30;64736;50.462;4.850;2023-08-21T04:53:17;18.59;84.73
76040;SHT30;64736;50.462;4.850;2023-08-21T04:55:43;18.57;84.59
76040;SHT30;64736;50.462;4.850;2023-08-21T04:58:09;18.58;84.67
76040;SHT30;64736;50.462;4.850;2023-08-21T05:00:35;18.62;84.67
76040;SHT30;64736;50.462;4.850;2023-08-21T05:03:01;18.57;84.74
76040;SHT30;64736;50.462;4.850;2023-08-21T05:05:27;18.59;84.73
76040;SHT30;64736;50.462;4.850;2023-08-21T05:07:53;18.54;84.90
76040;SHT30;64736;50.462;4.850;2023-08-21T05:10:19;18.47;85.28
76040;SHT30;64736;50.462;4.850;2023-08-21T05:12:46;18.44;85.20
76040;SHT30;64736;50.462;4.850;2023-08-21T05:15:12;18.48;85.30
76040;SHT30;64736;50.462;4.850;2023-08-21T05:17:38;18.40;85.40
76040;SHT30;64736;50.462;4.850;2023-08-21T05:20:04;18.45;85.26
76040;SHT30;64736;50.462;4.850;2023-08-21T05:22:30;18.47;85.18
76040;SHT30;64736;50.462;4.850;2023-08-21T05:24:56;18.44;85.21
76040;SHT30;64736;50.462;4.850;2023-08-21T05:27:21;18.41;85.04
76040;SHT30;64736;50.462;4.850;2023-08-21T05:29:47;18.41;84.89
76040;SHT30;64736;50.462;4.850;2023-08-21T05:32:16;18.41;85.11
76040;SHT30;64736;50.462;4.850;2023-08-21T05:34:42;18.41;84.98
76040;SHT30;64736;50.462;4.850;2023-08-21T05:37:08;18.36;85.04
76040;SHT30;64736;50.462;4.850;2023-08-21T05:39:33;18.38;85.16
76040;SHT30;64736;50.462;4.850;2023-08-21T05:41:59;18.44;84.73
76040;SHT30;64736;50.462;4.850;2023-08-21T05:44:25;18.45;84.50
76040;SHT30;64736;50.462;4.850;2023-08-21T05:46:51;18.48;84.39
76040;SHT30;64736;50.462;4.850;2023-08-21T05:49:16;18.49;84.23
76040;SHT30;64736;50.462;4.850;2023-08-21T05:51:42;18.51;84.19
76040;SHT30;64736;50.462;4.850;2023-08-21T05:54:08;18.49;84.00
76040;SHT30;64736;50.462;4.850;2023-08-21T05:56:33;18.57;84.06
76040;SHT30;64736;50.462;4.850;2023-08-21T05:58:59;18.57;83.88
76040;SHT30;64736;50.462;4.850;2023-08-21T06:01:25;18.48;83.98
76040;SHT30;64736;50.462;4.850;2023-08-21T06:03:51;18.49;83.87
76040;SHT30;64736;50.462;4.850;2023-08-21T06:06:16;18.52;83.92
76040;SHT30;64736;50.462;4.850;2023-08-21T06:08:42;18.48;84.18
76040;SHT30;64736;50.462;4.850;2023-08-21T06:11:09;18.55;84.05
76040;SHT30;64736;50.462;4.850;2023-08-21T06:13:34;18.55;84.08
76040;SHT30;64736;50.462;4.850;2023-08-21T06:16:00;18.59;84.07
76040;SHT30;64736;50.462;4.850;2023-08-21T06:18:26;18.59;84.08
76040;SHT30;64736;50.462;4.850;2023-08-21T06:20:52;18.65;84.14
76040;SHT30;64736;50.462;4.850;2023-08-21T06:23:21;18.69;84.09
76040;SHT30;64736;50.462;4.850;2023-08-21T06:25:48;18.72;83.80
76040;SHT30;64736;50.462;4.850;2023-08-21T06:28:14;18.76;83.65
76040;SHT30;64736;50.462;4.850;2023-08-21T06:30:39;18.82;83.56
76040;SHT30;64736;50.462;4.850;2023-08-21T06:33:05;18.85;83.57
76040;SHT30;64736;50.462;4.850;2023-08-21T06:35:31;18.92;83.48
76040;SHT30;64736;50.462;4.850;2023-08-21T06:37:56;18.88;83.43
76040;SHT30;64736;50.462;4.850;2023-08-21T06:40:22;18.93;83.51
76040;SHT30;64736;50.462;4.850;2023-08-21T06:42:48;19.06;83.26
76040;SHT30;64736;50.462;4.850;2023-08-21T06:45:18;18.66;84.51
76040;SHT30;64736;50.462;4.850;2023-08-21T06:47:43;18.66;84.61
76040;SHT30;64736;50.462;4.850;2023-08-21T06:50:10;18.99;83.85
76040;SHT30;64736;50.462;4.850;2023-08-21T06:52:35;19.10;82.48
76040;SHT30;64736;50.462;4.850;2023-08-21T06:55:01;19.28;82.81
76040;SHT30;64736;50.462;4.850;2023-08-21T06:57:27;19.26;82.68
76040;SHT30;64736;50.462;4.850;2023-08-21T06:59:53;19.14;83.28
76040;SHT30;64736;50.462;4.850;2023-08-21T07:02:19;19.38;80.18
76040;SHT30;64736;50.462;4.850;2023-08-21T07:04:45;19.41;80.35
76040;SHT30;64736;50.462;4.850;2023-08-21T07:07:11;19.55;79.43
76040;SHT30;64736;50.462;4.850;2023-08-21T07:09:37;19.60;79.62
76040;SHT30;64736;50.462;4.850;2023-08-21T07:12:03;19.60;79.29
76040;SHT30;64736;50.462;4.850;2023-08-21T07:14:28;19.88;78.93
76040;SHT30;64736;50.462;4.850;2023-08-21T07:16:54;19.91;78.00
76040;SHT30;64736;50.462;4.850;2023-08-21T07:19:20;19.88;77.87
76040;SHT30;64736;50.462;4.850;2023-08-21T07:21:45;19.92;77.58
76040;SHT30;64736;50.462;4.850;2023-08-21T07:24:11;19.86;77.83
76040;SHT30;64736;50.462;4.850;2023-08-21T07:26:37;19.96;77.40
76040;SHT30;64736;50.462;4.850;2023-08-21T07:29:03;19.89;77.20
76040;SHT30;64736;50.462;4.850;2023-08-21T07:31:30;19.98;77.30
76040;SHT30;64736;50.462;4.850;2023-08-21T07:33:56;20.05;76.87
76040;SHT30;64736;50.462;4.850;2023-08-21T07:36:22;20.10;76.76
76040;SHT30;64736;50.462;4.850;2023-08-21T07:38:47;20.15;76.19
76040;SHT30;64736;50.462;4.850;2023-08-21T07:41:13;20.16;76.59
76040;SHT30;64736;50.462;4.850;2023-08-21T07:43:44;20.32;75.86
76040;SHT30;64736;50.462;4.850;2023-08-21T07:46:13;20.51;75.69
76040;SHT30;64736;50.462;4.850;2023-08-21T07:48:47;20.49;75.16
76040;SHT30;64736;50.462;4.850;2023-08-21T07:51:13;20.49;75.77
76040;SHT30;64736;50.462;4.850;2023-08-21T07:53:39;20.50;75.41
76040;SHT30;64736;50.462;4.850;2023-08-21T07:56:05;20.41;75.09
76040;SHT30;64736;50.462;4.850;2023-08-21T07:58:31;20.41;75.50
76040;SHT30;64736;50.462;4.850;2023-08-21T08:00:58;20.50;75.54
76040;SHT30;64736;50.462;4.850;2023-08-21T08:03:24;20.63;75.30
76040;SHT30;64736;50.462;4.850;2023-08-21T08:05:51;20.80;74.34
76040;SHT30;64736;50.462;4.850;2023-08-21T08:08:17;20.68;74.14
76040;SHT30;64736;50.462;4.850;2023-08-21T08:10:43;20.77;73.64
76040;SHT30;64736;50.462;4.850;2023-08-21T08:13:09;20.95;73.55
76040;SHT30;64736;50.462;4.850;2023-08-21T08:15:36;21.08;71.94
76040;SHT30;64736;50.462;4.850;2023-08-21T08:18:03;21.15;71.75
76040;SHT30;64736;50.462;4.850;2023-08-21T08:20:29;21.38;72.04
76040;SHT30;64736;50.462;4.850;2023-08-21T08:22:55;21.41;71.78
76040;SHT30;64736;50.462;4.850;2023-08-21T08:25:22;21.42;71.00
76040;SHT30;64736;50.462;4.850;2023-08-21T08:27:48;21.45;70.14
76040;SHT30;64736;50.462;4.850;2023-08-21T08:30:14;21.54;69.93
76040;SHT30;64736;50.462;4.850;2023-08-21T08:32:42;21.49;70.07
76040;SHT30;64736;50.462;4.850;2023-08-21T08:35:14;21.66;69.76
76040;SHT30;64736;50.462;4.850;2023-08-21T08:37:43;21.90;68.73
76040;SHT30;64736;50.462;4.850;2023-08-21T08:40:10;21.98;67.61
76040;SHT30;64736;50.462;4.850;2023-08-21T08:42:37;21.96;68.10
76040;SHT30;64736;50.462;4.850;2023-08-21T08:45:04;21.80;68.92
76040;SHT30;64736;50.462;4.850;2023-08-21T08:47:33;21.90;68.45
76040;SHT30;64736;50.462;4.850;2023-08-21T08:50:04;22.18;67.98
76040;SHT30;64736;50.462;4.850;2023-08-21T08:52:36;22.18;68.38
76040;SHT30;64736;50.462;4.850;2023-08-21T08:55:02;22.34;67.34
76040;SHT30;64736;50.462;4.850;2023-08-21T08:57:30;22.08;67.71
76040;SHT30;64736;50.462;4.850;2023-08-21T08:59:55;22.18;67.65
76040;SHT30;64736;50.462;4.850;2023-08-21T09:02:22;22.38;66.99
76040;SHT30;64736;50.462;4.850;2023-08-21T09:04:48;22.51;66.80
76040;SHT30;64736;50.462;4.850;2023-08-21T09:07:17;22.69;66.25
76040;SHT30;64736;50.462;4.850;2023-08-21T09:09:49;22.53;67.17
76040;SHT30;64736;50.462;4.850;2023-08-21T09:12:16;22.82;65.51
76040;SHT30;64736;50.462;4.850;2023-08-21T09:14:43;22.96;64.97
76040;SHT30;64736;50.462;4.850;2023-08-21T09:17:09;22.92;65.26
76040;SHT30;64736;50.462;4.850;2023-08-21T09:19:36;23.08;65.34
76040;SHT30;64736;50.462;4.850;2023-08-21T09:24:35;23.18;64.75
76040;SHT30;64736;50.462;4.850;2023-08-21T09:27:01;23.50;64.25
76040;SHT30;64736;50.462;4.850;2023-08-21T09:29:38;23.24;64.00
76040;SHT30;64736;50.462;4.850;2023-08-21T09:32:06;23.59;63.27
76040;SHT30;64736;50.462;4.850;2023-08-21T09:34:35;23.83;62.39
76040;SHT30;64736;50.462;4.850;2023-08-21T09:37:05;24.14;62.02
76040;SHT30;64736;50.462;4.850;2023-08-21T09:39:34;24.60;59.82
76040;SHT30;64736;50.462;4.850;2023-08-21T09:42:00;24.17;61.05
76040;SHT30;64736;50.462;4.850;2023-08-21T09:44:27;24.29;60.51
76040;SHT30;64736;50.462;4.850;2023-08-21T09:46:53;24.21;60.92
76040;SHT30;64736;50.462;4.850;2023-08-21T09:49:19;25.05;59.29
76040;SHT30;64736;50.462;4.850;2023-08-21T09:51:45;25.16;58.22
76040;SHT30;64736;50.462;4.850;2023-08-21T09:54:13;24.58;60.28
76040;SHT30;64736;50.462;4.850;2023-08-21T09:56:39;24.29;60.72
76040;SHT30;64736;50.462;4.850;2023-08-21T09:59:06;25.18;58.65
76040;SHT30;64736;50.462;4.850;2023-08-21T10:01:34;25.83;57.02
76040;SHT30;64736;50.462;4.850;2023-08-21T10:04:02;25.71;57.83
76040;SHT30;64736;50.462;4.850;2023-08-21T10:06:28;25.47;58.01
76040;SHT30;64736;50.462;4.850;2023-08-21T10:08:56;25.94;57.24
76040;SHT30;64736;50.462;4.850;2023-08-21T10:11:23;26.31;55.94
76040;SHT30;64736;50.462;4.850;2023-08-21T10:13:49;25.85;57.29
76040;SHT30;64736;50.462;4.850;2023-08-21T10:16:19;26.45;55.20
76040;SHT30;64736;50.462;4.850;2023-08-21T10:18:47;26.64;54.76
76040;SHT30;64736;50.462;4.850;2023-08-21T10:21:18;27.56;53.08
76040;SHT30;64736;50.462;4.850;2023-08-21T10:23:54;26.31;55.59
76040;SHT30;64736;50.462;4.850;2023-08-21T10:26:21;26.66;55.21
76040;SHT30;64736;50.462;4.850;2023-08-21T10:28:51;27.85;52.43
76040;SHT30;64736;50.462;4.850;2023-08-21T10:31:40;31.77;45.17
76040;SHT30;64736;50.462;4.850;2023-08-21T10:34:12;28.95;48.89
76040;SHT30;64736;50.462;4.850;2023-08-21T10:39:13;27.38;53.33
76040;SHT30;64736;50.462;4.850;2023-08-21T10:41:40;27.96;51.42
76040;SHT30;64736;50.462;4.850;2023-08-21T10:44:06;30.37;46.94
76040;SHT30;64736;50.462;4.850;2023-08-21T10:46:53;30.49;45.63
76040;SHT30;64736;50.462;4.850;2023-08-21T10:49:18;28.98;49.73
76040;SHT30;64736;50.462;4.850;2023-08-21T10:51:44;28.98;49.68
76040;SHT30;64736;50.462;4.850;2023-08-21T10:54:11;28.67;50.22
76040;SHT30;64736;50.462;4.850;2023-08-21T10:56:38;29.37;48.26
76040;SHT30;64736;50.462;4.850;2023-08-21T10:59:03;27.56;52.11
76040;SHT30;64736;50.462;4.850;2023-08-21T11:01:49;31.62;44.54
76040;SHT30;64736;50.462;4.850;2023-08-21T11:04:17;29.46;47.92
76040;SHT30;64736;50.462;4.850;2023-08-21T11:06:42;29.02;48.71
76040;SHT30;64736;50.462;4.850;2023-08-21T11:09:15;29.63;47.35
76040;SHT30;64736;50.462;4.850;2023-08-21T11:11:43;35.75;36.85
76040;SHT30;64736;50.462;4.850;2023-08-21T11:14:09;30.47;45.53
76040;SHT30;64736;50.462;4.850;2023-08-21T11:16:34;29.73;47.71
76040;SHT30;64736;50.462;4.850;2023-08-21T11:19:04;28.47;50.34
76040;SHT30;64736;50.462;4.850;2023-08-21T11:21:31;27.23;53.21
76040;SHT30;64736;50.462;4.850;2023-08-21T11:23:56;28.06;52.33
76040;SHT30;64736;50.462;4.850;2023-08-21T11:26:25;26.67;55.29
76040;SHT30;64736;50.462;4.850;2023-08-21T11:28:51;26.49;54.76
76040;SHT30;64736;50.462;4.850;2023-08-21T11:31:17;26.57;54.63
76040;SHT30;64736;50.462;4.850;2023-08-21T11:33:50;26.21;55.69
76040;SHT30;64736;50.462;4.850;2023-08-21T11:36:15;26.57;54.49
76040;SHT30;64736;50.462;4.850;2023-08-21T11:38:41;26.97;53.68
76040;SHT30;64736;50.462;4.850;2023-08-21T11:41:07;26.53;55.01
76040;SHT30;64736;50.462;4.850;2023-08-21T11:43:41;28.37;50.60
76040;SHT30;64736;50.462;4.850;2023-08-21T11:46:09;28.03;50.93
76040;SHT30;64736;50.462;4.850;2023-08-21T11:48:40;28.79;49.09
76040;SHT30;64736;50.462;4.850;2023-08-21T11:51:09;28.31;49.18
76040;SHT30;64736;50.462;4.850;2023-08-21T11:56:03;29.02;48.99
76040;SHT30;64736;50.462;4.850;2023-08-21T11:58:39;30.04;46.38
76040;SHT30;64736;50.462;4.850;2023-08-21T12:01:04;30.53;46.06
76040;SHT30;64736;50.462;4.850;2023-08-21T12:03:39;28.68;49.27
76040;SHT30;64736;50.462;4.850;2023-08-21T12:06:10;29.84;47.60
76040;SHT30;64736;50.462;4.850;2023-08-21T12:08:36;29.34;47.76
76040;SHT30;64736;50.462;4.850;2023-08-21T12:11:02;28.55;48.14
76040;SHT30;64736;50.462;4.850;2023-08-21T12:13:28;28.68;48.83
76040;SHT30;64736;50.462;4.850;2023-08-21T12:15:54;28.48;48.51
76040;SHT30;64736;50.462;4.850;2023-08-21T12:18:20;29.73;47.09
76040;SHT30;64736;50.462;4.850;2023-08-21T12:20:46;29.60;47.07
76040;SHT30;64736;50.462;4.850;2023-08-21T12:23:12;30.01;45.97
76040;SHT30;64736;50.462;4.850;2023-08-21T12:25:37;29.88;45.66
76040;SHT30;64736;50.462;4.850;2023-08-21T12:28:04;32.71;41.68
76040;SHT30;64736;50.462;4.850;2023-08-21T12:30:30;35.69;36.17
76040;SHT30;64736;50.462;4.850;2023-08-21T12:32:56;30.55;43.65
76040;SHT30;64736;50.462;4.850;2023-08-21T12:35:21;30.64;43.76
76040;SHT30;64736;50.462;4.850;2023-08-21T12:37:47;32.09;40.24
76040;SHT30;64736;50.462;4.850;2023-08-21T12:40:13;30.00;43.96
76040;SHT30;64736;50.462;4.850;2023-08-21T12:42:38;29.53;45.87
76040;SHT30;64736;50.462;4.850;2023-08-21T12:45:05;29.63;46.87
76040;SHT30;64736;50.462;4.850;2023-08-21T12:47:31;29.94;46.03
76040;SHT30;64736;50.462;4.850;2023-08-21T12:49:56;28.89;47.43
76040;SHT30;64736;50.462;4.850;2023-08-21T12:52:22;29.42;46.92
76040;SHT30;64736;50.462;4.850;2023-08-21T12:54:48;29.09;46.62
76040;SHT30;64736;50.462;4.850;2023-08-21T12:57:14;29.64;45.37
76040;SHT30;64736;50.462;4.850;2023-08-21T12:59:42;29.86;45.59
76040;SHT30;64736;50.462;4.850;2023-08-21T13:02:08;29.38;46.74
76040;SHT30;64736;50.462;4.850;2023-08-21T13:04:34;30.61;43.51
76040;SHT30;64736;50.462;4.850;2023-08-21T13:07:00;30.83;42.97
76040;SHT30;64736;50.462;4.850;2023-08-21T13:09:26;28.71;45.97
76040;SHT30;64736;50.462;4.850;2023-08-21T13:11:54;29.74;44.96
76040;SHT30;64736;50.462;4.850;2023-08-21T13:14:19;31.82;41.14
76040;SHT30;64736;50.462;4.850;2023-08-21T13:16:45;31.19;41.41
76040;SHT30;64736;50.462;4.850;2023-08-21T13:19:11;30.94;42.46
76040;SHT30;64736;50.462;4.850;2023-08-21T13:21:37;30.97;42.83
76040;SHT30;64736;50.462;4.850;2023-08-21T13:24:03;31.02;41.98
76040;SHT30;64736;50.462;4.850;2023-08-21T13:26:30;30.70;43.23
76040;SHT30;64736;50.462;4.850;2023-08-21T13:28:56;32.28;40.37
76040;SHT30;64736;50.462;4.850;2023-08-21T13:31:22;34.66;37.34
76040;SHT30;64736;50.462;4.850;2023-08-21T13:33:49;34.74;36.77
76040;SHT30;64736;50.462;4.850;2023-08-21T13:36:15;32.79;39.13
76040;SHT30;64736;50.462;4.850;2023-08-21T13:38:42;35.13;35.91
76040;SHT30;64736;50.462;4.850;2023-08-21T13:41:08;34.19;36.74
76040;SHT30;64736;50.462;4.850;2023-08-21T13:43:35;32.69;39.79
76040;SHT30;64736;50.462;4.850;2023-08-21T13:46:01;32.20;41.09
76040;SHT30;64736;50.462;4.850;2023-08-21T13:48:30;31.15;42.07
76040;SHT30;64736;50.462;4.850;2023-08-21T13:50:56;31.49;42.02
76040;SHT30;64736;50.462;4.850;2023-08-21T13:53:22;32.07;41.40
76040;SHT30;64736;50.462;4.850;2023-08-21T13:55:49;31.02;42.93
76040;SHT30;64736;50.462;4.850;2023-08-21T13:58:15;31.32;42.76
76040;SHT30;64736;50.462;4.850;2023-08-21T14:00:41;30.91;43.26
76040;SHT30;64736;50.462;4.850;2023-08-21T14:03:07;31.15;42.38
76040;SHT30;64736;50.462;4.850;2023-08-21T14:05:32;31.70;41.33
76040;SHT30;64736;50.462;4.850;2023-08-21T14:07:59;31.77;41.73
76040;SHT30;64736;50.462;4.850;2023-08-21T14:10:26;32.64;39.63
76040;SHT30;64736;50.462;4.850;2023-08-21T14:12:52;31.74;41.08
76040;SHT30;64736;50.462;4.850;2023-08-21T14:15:18;32.31;39.83
76040;SHT30;64736;50.462;4.850;2023-08-21T14:17:44;34.13;36.97
76040;SHT30;64736;50.462;4.850;2023-08-21T14:20:10;33.68;37.85
76040;SHT30;64736;50.462;4.850;2023-08-21T14:22:37;33.22;38.23
76040;SHT30;64736;50.462;4.850;2023-08-21T14:25:03;32.11;40.04
76040;SHT30;64736;50.462;4.850;2023-08-21T14:27:32;33.00;39.55
76040;SHT30;64736;50.462;4.850;2023-08-21T14:29:58;33.46;37.90
76040;SHT30;64736;50.462;4.850;2023-08-21T14:32:24;32.72;40.10
76040;SHT30;64736;50.462;4.850;2023-08-21T14:34:50;32.59;39.71
76040;SHT30;64736;50.462;4.850;2023-08-21T14:37:19;36.75;34.35
76040;SHT30;64736;50.462;4.850;2023-08-21T14:39:46;34.57;36.43
76040;SHT30;64736;50.462;4.850;2023-08-21T14:42:13;34.31;36.85
76040;SHT30;64736;50.462;4.850;2023-08-21T14:44:39;34.29;36.53
76040;SHT30;64736;50.462;4.850;2023-08-21T14:47:05;32.42;38.95
76040;SHT30;64736;50.462;4.850;2023-08-21T14:49:31;35.04;35.57
76040;SHT30;64736;50.462;4.850;2023-08-21T14:51:58;32.57;40.00
76040;SHT30;64736;50.462;4.850;2023-08-21T14:54:24;30.98;42.66
76040;SHT30;64736;50.462;4.850;2023-08-21T14:56:50;30.60;43.79
76040;SHT30;64736;50.462;4.850;2023-08-21T14:59:16;30.91;43.42
76040;SHT30;64736;50.462;4.850;2023-08-21T15:01:42;31.22;42.30
76040;SHT30;64736;50.462;4.850;2023-08-21T15:04:08;32.48;40.99
76040;SHT30;64736;50.462;4.850;2023-08-21T15:06:35;31.93;41.35
76040;SHT30;64736;50.462;4.850;2023-08-21T15:09:01;32.57;40.40
76040;SHT30;64736;50.462;4.850;2023-08-21T15:11:27;33.29;38.36
76040;SHT30;64736;50.462;4.850;2023-08-21T15:13:53;33.16;38.21
76040;SHT30;64736;50.462;4.850;2023-08-21T15:16:19;34.22;36.83
76040;SHT30;64736;50.462;4.850;2023-08-21T15:18:44;34.12;36.71
76040;SHT30;64736;50.462;4.850;2023-08-21T15:21:12;33.16;38.38
76040;SHT30;64736;50.462;4.850;2023-08-21T15:23:38;34.39;36.55
76040;SHT30;64736;50.462;4.850;2023-08-21T15:26:04;31.46;40.81
76040;SHT30;64736;50.462;4.850;2023-08-21T15:28:30;32.47;39.86
76040;SHT30;64736;50.462;4.850;2023-08-21T15:30:55;31.15;41.62
76040;SHT30;64736;50.462;4.850;2023-08-21T15:33:22;33.46;38.28
76040;SHT30;64736;50.462;4.850;2023-08-21T15:35:47;31.79;40.51
76040;SHT30;64736;50.462;4.850;2023-08-21T15:38:13;32.28;39.75
76040;SHT30;64736;50.462;4.850;2023-08-21T15:40:39;31.62;40.47